createdAt,value
2023-05-04T00:00:46.565Z,26.48
2023-05-04T00:01:46.565Z,26.50
2023-05-04T00:02:46.652Z,26.47
2023-05-04T00:03:46.975Z,26.50
2023-05-04T00:04:46.723Z,26.45
2023-05-04T00:05:46.554Z,26.47
2023-05-04T00:06:46.568Z,26.45
2023-05-04T00:07:46.537Z,26.47
2023-05-04T00:08:46.513Z,26.47
2023-05-04T00:09:46.532Z,26.45
2023-05-04T00:10:46.492Z,26.47
2023-05-04T00:11:46.493Z,26.45
2023-05-04T00:12:46.577Z,26.44
2023-05-04T00:13:46.490Z,26.45
2023-05-04T00:14:46.449Z,26.47
2023-05-04T00:15:46.488Z,26.44
2023-05-04T00:16:46.487Z,26.47
2023-05-04T00:17:46.466Z,26.45
2023-05-04T00:18:46.465Z,26.45
2023-05-04T00:19:46.433Z,26.47
2023-05-04T00:20:46.421Z,26.42
2023-05-04T00:21:46.447Z,26.44
2023-05-04T00:22:46.433Z,26.45
2023-05-04T00:23:46.457Z,26.42
2023-05-04T00:24:46.479Z,26.44
2023-05-04T00:25:46.463Z,26.44
2023-05-04T00:26:46.515Z,26.42
2023-05-04T00:27:46.486Z,26.44
2023-05-04T00:28:46.496Z,26.41
2023-05-04T00:29:46.537Z,26.41
2023-05-04T00:30:46.536Z,26.42
2023-05-04T00:31:46.550Z,26.42
2023-05-04T00:32:46.591Z,26.41
2023-05-04T00:33:46.561Z,26.42
2023-05-04T00:34:46.566Z,26.44
2023-05-04T00:35:46.612Z,26.41
2023-05-04T00:36:46.587Z,26.41
2023-05-04T00:37:46.621Z,26.41
2023-05-04T00:38:46.619Z,26.41
2023-05-04T00:39:46.628Z,26.42
2023-05-04T00:40:46.632Z,26.42
2023-05-04T00:41:46.679Z,26.42
2023-05-04T00:42:46.680Z,26.41
2023-05-04T00:43:46.652Z,26.41
2023-05-04T00:44:46.695Z,26.41
2023-05-04T00:45:46.699Z,26.41
2023-05-04T00:46:46.726Z,26.41
2023-05-04T00:47:46.829Z,26.41
2023-05-04T00:48:46.762Z,26.42
2023-05-04T00:49:46.790Z,26.40
2023-05-04T00:50:46.791Z,26.40
2023-05-04T00:51:46.825Z,26.38
2023-05-04T00:52:46.844Z,26.41
2023-05-04T00:53:46.851Z,26.37
2023-05-04T00:54:46.880Z,26.40
2023-05-04T00:55:46.862Z,26.41
2023-05-04T00:56:46.892Z,26.38
2023-05-04T00:57:46.926Z,26.40
2023-05-04T00:58:46.918Z,26.38
2023-05-04T00:59:46.967Z,26.40
2023-05-04T01:00:47.027Z,26.40
2023-05-04T01:01:46.988Z,26.40
2023-05-04T01:02:47.057Z,26.40
2023-05-04T01:03:47.044Z,26.40
2023-05-04T01:04:47.053Z,26.38
2023-05-04T01:05:47.047Z,26.35
2023-05-04T01:06:47.034Z,26.35
2023-05-04T01:07:47.066Z,26.37
2023-05-04T01:08:47.071Z,26.38
2023-05-04T01:09:47.105Z,26.37
2023-05-04T01:10:47.122Z,26.37
2023-05-04T01:11:47.133Z,26.38
2023-05-04T01:12:47.145Z,26.35
2023-05-04T01:13:47.167Z,26.38
2023-05-04T01:14:47.192Z,26.38
2023-05-04T01:15:47.220Z,26.34
2023-05-04T01:16:47.303Z,26.37
2023-05-04T01:17:47.301Z,26.37
2023-05-04T01:18:47.233Z,26.35
2023-05-04T01:19:47.242Z,26.34
2023-05-04T01:20:47.292Z,26.37
2023-05-04T01:21:47.266Z,26.34
2023-05-04T01:22:47.315Z,26.37
2023-05-04T01:23:47.311Z,26.38
2023-05-04T01:24:47.341Z,26.35
2023-05-04T01:25:47.329Z,26.35
2023-05-04T01:26:47.373Z,26.35
2023-05-04T01:27:47.415Z,26.35
2023-05-04T01:28:47.397Z,26.37
2023-05-04T01:29:47.461Z,26.32
2023-05-04T01:30:47.455Z,26.34
2023-05-04T01:31:47.470Z,26.34
2023-05-04T01:32:47.513Z,26.35
2023-05-04T01:33:47.508Z,26.35
2023-05-04T01:34:47.517Z,26.31
2023-05-04T01:35:47.579Z,26.32
2023-05-04T01:36:47.585Z,26.32
2023-05-04T01:37:47.588Z,26.32
2023-05-04T01:38:47.586Z,26.34
2023-05-04T01:39:47.616Z,26.32
2023-05-04T01:40:47.649Z,26.35
2023-05-04T01:41:47.633Z,26.35
2023-05-04T01:42:47.686Z,26.32
2023-05-04T01:43:47.681Z,26.34
2023-05-04T01:44:47.684Z,26.32
2023-05-04T01:45:47.734Z,26.32
2023-05-04T01:46:47.736Z,26.34
2023-05-04T01:47:47.753Z,26.31
2023-05-04T01:48:47.769Z,26.32
2023-05-04T01:49:47.781Z,26.30
2023-05-04T01:50:47.802Z,26.31
2023-05-04T01:51:47.813Z,26.31
2023-05-04T01:52:47.870Z,26.31
2023-05-04T01:53:47.916Z,26.32
2023-05-04T01:54:47.891Z,26.32
2023-05-04T01:55:47.917Z,26.32
2023-05-04T01:56:47.920Z,26.31
2023-05-04T01:57:47.989Z,26.31
2023-05-04T01:58:47.978Z,26.32
2023-05-04T01:59:48.007Z,26.32
2023-05-04T02:00:48.030Z,26.30
2023-05-04T02:01:48.075Z,26.31
2023-05-04T02:02:48.146Z,26.31
2023-05-04T02:03:48.179Z,26.31
2023-05-04T02:04:48.109Z,26.31
2023-05-04T02:05:48.136Z,26.32
2023-05-04T02:06:48.147Z,26.30
2023-05-04T02:07:48.189Z,26.31
2023-05-04T02:08:48.203Z,26.30
2023-05-04T02:09:48.199Z,26.30
2023-05-04T02:10:48.216Z,26.30
2023-05-04T02:11:48.265Z,26.30
2023-05-04T02:12:48.335Z,26.30
2023-05-04T02:13:48.309Z,26.30
2023-05-04T02:14:48.313Z,26.31
2023-05-04T02:15:48.428Z,26.30
2023-05-04T02:16:48.370Z,26.27
2023-05-04T02:17:48.446Z,26.30
2023-05-04T02:18:48.426Z,26.30
2023-05-04T02:19:48.425Z,26.28
2023-05-04T02:20:48.468Z,26.30
2023-05-04T02:21:48.487Z,26.30
2023-05-04T02:22:48.514Z,26.28
2023-05-04T02:23:48.533Z,26.28
2023-05-04T02:24:48.544Z,26.28
2023-05-04T02:25:48.568Z,26.27
2023-05-04T02:26:48.623Z,26.27
2023-05-04T02:27:48.632Z,26.27
2023-05-04T02:28:48.642Z,26.26
2023-05-04T02:29:48.692Z,26.26
2023-05-04T02:30:48.677Z,26.28
2023-05-04T02:31:48.769Z,26.26
2023-05-04T02:32:48.808Z,26.28
2023-05-04T02:33:48.786Z,26.27
2023-05-04T02:34:48.790Z,26.27
2023-05-04T02:35:48.783Z,26.26
2023-05-04T02:36:48.817Z,26.27
2023-05-04T02:37:48.880Z,26.24
2023-05-04T02:38:48.931Z,26.27
2023-05-04T02:39:48.929Z,26.26
2023-05-04T02:40:48.929Z,26.24
2023-05-04T02:41:48.929Z,26.26
2023-05-04T02:42:48.983Z,26.26
2023-05-04T02:43:48.984Z,26.27
2023-05-04T02:44:49.027Z,26.26
2023-05-04T02:45:49.067Z,26.26
2023-05-04T02:46:49.080Z,26.26
2023-05-04T02:47:49.106Z,26.26
2023-05-04T02:48:49.079Z,26.23
2023-05-04T02:49:49.150Z,26.24
2023-05-04T02:50:49.137Z,26.24
2023-05-04T02:51:49.198Z,26.23
2023-05-04T02:52:49.220Z,26.24
2023-05-04T02:53:49.212Z,26.24
2023-05-04T02:54:50.663Z,26.23
2023-05-04T02:55:49.238Z,26.26
2023-05-04T02:56:49.239Z,26.24
2023-05-04T02:57:49.227Z,26.23
2023-05-04T02:58:49.224Z,26.24
2023-05-04T02:59:49.189Z,26.23
2023-05-04T03:00:49.233Z,26.23
2023-05-04T03:01:49.259Z,26.23
2023-05-04T03:02:49.211Z,26.24
2023-05-04T03:03:49.241Z,26.23
2023-05-04T03:04:49.200Z,26.21
2023-05-04T03:05:49.163Z,26.21
2023-05-04T03:06:49.199Z,26.21
2023-05-04T03:07:49.193Z,26.23
2023-05-04T03:08:49.148Z,26.21
2023-05-04T03:09:49.142Z,26.23
2023-05-04T03:10:49.110Z,26.23
2023-05-04T03:11:49.161Z,26.21
2023-05-04T03:12:49.130Z,26.23
2023-05-04T03:13:49.095Z,26.23
2023-05-04T03:14:49.122Z,26.20
2023-05-04T03:15:49.105Z,26.18
2023-05-04T03:16:49.193Z,26.21
2023-05-04T03:17:49.126Z,26.20
2023-05-04T03:18:49.082Z,26.20
2023-05-04T03:19:49.071Z,26.20
2023-05-04T03:20:49.069Z,26.21
2023-05-04T03:21:49.089Z,26.20
2023-05-04T03:22:49.099Z,26.17
2023-05-04T03:23:49.051Z,26.18
2023-05-04T03:24:49.051Z,26.20
2023-05-04T03:25:49.031Z,26.20
2023-05-04T03:26:49.000Z,26.16
2023-05-04T03:27:49.030Z,26.21
2023-05-04T03:28:49.017Z,26.20
2023-05-04T03:29:48.991Z,26.18
2023-05-04T03:30:49.024Z,26.20
2023-05-04T03:31:48.983Z,26.18
2023-05-04T03:32:49.008Z,26.20
2023-05-04T03:33:48.979Z,26.18
2023-05-04T03:34:48.979Z,26.20
2023-05-04T03:35:48.966Z,26.20
2023-05-04T03:36:48.972Z,26.21
2023-05-04T03:37:48.951Z,26.16
2023-05-04T03:38:48.914Z,26.18
2023-05-04T03:39:48.925Z,26.17
2023-05-04T03:40:48.938Z,26.18
2023-05-04T03:41:48.892Z,26.18
2023-05-04T03:42:48.924Z,26.17
2023-05-04T03:43:48.885Z,26.16
2023-05-04T03:44:48.893Z,26.17
2023-05-04T03:45:48.913Z,26.16
2023-05-04T03:46:48.894Z,26.18
2023-05-04T03:47:48.904Z,26.16
2023-05-04T03:48:48.852Z,26.20
2023-05-04T03:49:48.862Z,26.14
2023-05-04T03:50:48.848Z,26.20
2023-05-04T03:51:48.835Z,26.17
2023-05-04T03:52:48.855Z,26.17
2023-05-04T03:53:48.826Z,26.16
2023-05-04T03:54:48.838Z,26.17
2023-05-04T03:55:48.842Z,26.16
2023-05-04T03:56:48.796Z,26.17
2023-05-04T03:57:48.792Z,26.16
2023-05-04T03:58:48.854Z,26.16
2023-05-04T03:59:48.860Z,26.17
2023-05-04T04:00:48.885Z,26.17
2023-05-04T04:01:48.930Z,26.14
2023-05-04T04:02:49.093Z,26.14
2023-05-04T04:03:49.300Z,26.17
2023-05-04T04:04:49.013Z,26.17
2023-05-04T04:05:49.048Z,26.17
2023-05-04T04:06:49.192Z,26.18
2023-05-04T04:07:49.154Z,26.16
2023-05-04T04:08:49.168Z,26.16
2023-05-04T04:09:49.209Z,26.16
2023-05-04T04:10:49.226Z,26.16
2023-05-04T04:11:49.261Z,26.16
2023-05-04T04:12:49.304Z,26.16
2023-05-04T04:13:49.872Z,26.16
2023-05-04T04:14:49.369Z,26.14
2023-05-04T04:15:49.405Z,26.14
2023-05-04T04:16:49.449Z,26.17
2023-05-04T04:17:49.467Z,26.17
2023-05-04T04:18:49.465Z,26.17
2023-05-04T04:19:49.537Z,26.16
2023-05-04T04:20:49.534Z,26.16
2023-05-04T04:21:49.574Z,26.14
2023-05-04T04:22:49.646Z,26.16
2023-05-04T04:23:49.694Z,26.17
2023-05-04T04:24:49.680Z,26.17
2023-05-04T04:25:49.725Z,26.16
2023-05-04T04:26:49.757Z,26.16
2023-05-04T04:27:49.786Z,26.16
2023-05-04T04:28:49.824Z,26.16
2023-05-04T04:29:49.859Z,26.16
2023-05-04T04:30:49.892Z,26.17
2023-05-04T04:31:50.082Z,26.16
2023-05-04T04:32:50.017Z,26.17
2023-05-04T04:33:49.975Z,26.14
2023-05-04T04:34:50.050Z,26.18
2023-05-04T04:35:50.050Z,26.16
2023-05-04T04:36:50.094Z,26.16
2023-05-04T04:37:50.126Z,26.14
2023-05-04T04:38:50.157Z,26.16
2023-05-04T04:39:50.199Z,26.14
2023-05-04T04:40:50.212Z,26.16
2023-05-04T04:41:50.250Z,26.14
2023-05-04T04:42:50.295Z,26.14
2023-05-04T04:43:50.360Z,26.14
2023-05-04T04:44:50.354Z,26.17
2023-05-04T04:45:50.396Z,26.17
2023-05-04T04:46:50.401Z,26.14
2023-05-04T04:47:50.553Z,26.17
2023-05-04T04:48:50.489Z,26.17
2023-05-04T04:49:50.490Z,26.16
2023-05-04T04:50:50.527Z,26.16
2023-05-04T04:51:50.574Z,26.18
2023-05-04T04:52:50.593Z,26.16
2023-05-04T04:53:50.634Z,26.17
2023-05-04T04:54:50.671Z,26.17
2023-05-04T04:55:50.701Z,26.16
2023-05-04T04:56:50.694Z,26.16
2023-05-04T04:57:50.729Z,26.18
2023-05-04T04:58:50.752Z,26.17
2023-05-04T04:59:50.776Z,26.16
2023-05-04T05:00:50.858Z,26.18
2023-05-04T05:01:50.814Z,26.18
2023-05-04T05:02:50.902Z,26.18
2023-05-04T05:03:50.866Z,26.16
2023-05-04T05:04:50.945Z,26.17
2023-05-04T05:05:50.928Z,26.17
2023-05-04T05:06:50.976Z,26.16
2023-05-04T05:07:51.014Z,26.17
2023-05-04T05:08:51.029Z,26.18
2023-05-04T05:09:51.066Z,26.17
2023-05-04T05:10:51.063Z,26.16
2023-05-04T05:11:51.096Z,26.17
2023-05-04T05:12:51.282Z,26.18
2023-05-04T05:13:51.187Z,26.16
2023-05-04T05:14:51.220Z,26.17
2023-05-04T05:15:51.233Z,26.17
2023-05-04T05:16:51.323Z,26.17
2023-05-04T05:17:51.367Z,26.17
2023-05-04T05:18:51.332Z,26.18
2023-05-04T05:19:51.358Z,26.17
2023-05-04T05:20:51.389Z,26.17
2023-05-04T05:21:51.436Z,26.18
2023-05-04T05:22:51.466Z,26.16
2023-05-04T05:23:51.516Z,26.18
2023-05-04T05:24:51.520Z,26.17
2023-05-04T05:25:51.547Z,26.18
2023-05-04T05:26:51.596Z,26.17
2023-05-04T05:27:51.609Z,26.17
2023-05-04T05:28:52.945Z,26.18
2023-05-04T05:29:51.685Z,26.17
2023-05-04T05:30:51.707Z,26.18
2023-05-04T05:31:51.727Z,26.17
2023-05-04T05:32:51.758Z,26.18
2023-05-04T05:33:51.782Z,26.18
2023-05-04T05:34:51.816Z,26.20
2023-05-04T05:35:51.820Z,26.17
2023-05-04T05:36:51.872Z,26.20
2023-05-04T05:37:51.922Z,26.16
2023-05-04T05:38:51.892Z,26.18
2023-05-04T05:39:51.967Z,26.21
2023-05-04T05:40:51.995Z,26.17
2023-05-04T05:41:52.002Z,26.18
2023-05-04T05:42:52.382Z,26.21
2023-05-04T05:43:52.055Z,26.20
2023-05-04T05:44:52.092Z,26.20
2023-05-04T05:45:52.180Z,26.18
2023-05-04T05:46:52.154Z,26.23
2023-05-04T05:47:52.472Z,26.20
2023-05-04T05:48:52.220Z,26.20
2023-05-04T05:49:52.237Z,26.21
2023-05-04T05:50:52.284Z,26.20
2023-05-04T05:51:52.303Z,26.18
2023-05-04T05:52:52.440Z,26.20
2023-05-04T05:53:52.331Z,26.21
2023-05-04T05:54:52.456Z,26.21
2023-05-04T05:55:52.362Z,26.21
2023-05-04T05:56:52.405Z,26.18
2023-05-04T05:57:52.429Z,26.21
2023-05-04T05:58:52.457Z,26.20
2023-05-04T05:59:52.483Z,26.18
2023-05-04T06:00:52.493Z,26.20
2023-05-04T06:01:52.560Z,26.21
2023-05-04T06:02:52.709Z,26.21
2023-05-04T06:03:52.781Z,26.20
2023-05-04T06:04:52.617Z,26.24
2023-05-04T06:05:52.620Z,26.21
2023-05-04T06:06:52.678Z,26.23
2023-05-04T06:07:52.722Z,26.21
2023-05-04T06:08:52.692Z,26.24
2023-05-04T06:09:52.758Z,26.23
2023-05-04T06:10:52.819Z,26.24
2023-05-04T06:11:55.319Z,26.24
2023-05-04T06:12:52.826Z,26.20
2023-05-04T06:13:52.808Z,26.23
2023-05-04T06:14:52.782Z,26.23
2023-05-04T06:15:52.831Z,26.23
2023-05-04T06:16:52.752Z,26.24
2023-05-04T06:17:52.776Z,26.24
2023-05-04T06:18:52.746Z,26.21
2023-05-04T06:19:52.796Z,26.24
2023-05-04T06:20:52.735Z,26.23
2023-05-04T06:21:52.716Z,26.21
2023-05-04T06:22:52.708Z,26.21
2023-05-04T06:23:52.716Z,26.24
2023-05-04T06:24:53.985Z,26.24
2023-05-04T06:25:52.692Z,26.23
2023-05-04T06:26:52.698Z,26.24
2023-05-04T06:27:52.658Z,26.24
2023-05-04T06:28:52.679Z,26.23
2023-05-04T06:29:53.409Z,26.26
2023-05-04T06:30:52.639Z,26.23
2023-05-04T06:31:52.656Z,26.24
2023-05-04T06:32:52.690Z,26.23
2023-05-04T06:33:52.643Z,26.24
2023-05-04T06:34:52.633Z,26.24
2023-05-04T06:35:52.592Z,26.24
2023-05-04T06:36:52.649Z,26.24
2023-05-04T06:37:52.589Z,26.24
2023-05-04T06:38:52.581Z,26.23
2023-05-04T06:39:52.599Z,26.26
2023-05-04T06:40:52.680Z,26.26
2023-05-04T06:41:52.547Z,26.24
2023-05-04T06:42:52.587Z,26.26
2023-05-04T06:43:52.547Z,26.24
2023-05-04T06:44:52.562Z,26.24
2023-05-04T06:45:52.578Z,26.24
2023-05-04T06:46:52.537Z,26.23
2023-05-04T06:47:52.574Z,26.23
2023-05-04T06:48:52.531Z,26.23
2023-05-04T06:49:52.516Z,26.23
2023-05-04T06:50:52.507Z,26.24
2023-05-04T06:51:52.510Z,26.26
2023-05-04T06:52:52.485Z,26.23
2023-05-04T06:53:52.473Z,26.24
2023-05-04T06:54:52.484Z,26.24
2023-05-04T06:55:52.482Z,26.24
2023-05-04T06:56:52.508Z,26.24
2023-05-04T06:57:52.457Z,26.26
2023-05-04T06:58:52.537Z,26.24
2023-05-04T06:59:52.449Z,26.24
2023-05-04T07:00:52.451Z,26.26
2023-05-04T07:01:52.441Z,26.26
2023-05-04T07:02:52.440Z,26.24
2023-05-04T07:03:52.545Z,26.24
2023-05-04T07:04:52.474Z,26.26
2023-05-04T07:05:52.544Z,26.24
2023-05-04T07:06:52.578Z,26.27
2023-05-04T07:07:52.963Z,26.23
2023-05-04T07:08:52.632Z,26.26
2023-05-04T07:09:52.656Z,26.26
2023-05-04T07:10:52.673Z,26.24
2023-05-04T07:11:52.683Z,26.26
2023-05-04T07:12:52.776Z,26.27
2023-05-04T07:13:52.750Z,26.23
2023-05-04T07:14:52.782Z,26.23
2023-05-04T07:15:52.826Z,26.24
2023-05-04T07:16:52.839Z,26.27
2023-05-04T07:17:52.979Z,26.26
2023-05-04T07:18:52.896Z,26.26
2023-05-04T07:19:52.911Z,26.27
2023-05-04T07:20:54.316Z,26.26
2023-05-04T07:21:53.928Z,26.26
2023-05-04T07:22:52.915Z,26.24
2023-05-04T07:23:52.927Z,26.28
2023-05-04T07:24:52.887Z,26.26
2023-05-04T07:25:53.741Z,26.26
2023-05-04T07:26:52.885Z,26.27
2023-05-04T07:27:52.888Z,26.26
2023-05-04T07:28:52.884Z,26.26
2023-05-04T07:29:52.894Z,26.27
2023-05-04T07:30:52.869Z,26.28
2023-05-04T07:31:52.900Z,26.26
2023-05-04T07:32:52.944Z,26.28
2023-05-04T07:33:52.848Z,26.28
2023-05-04T07:34:52.844Z,26.27
2023-05-04T07:35:52.853Z,26.30
2023-05-04T07:36:52.822Z,26.30
2023-05-04T07:37:52.926Z,26.27
2023-05-04T07:38:52.873Z,26.31
2023-05-04T07:39:52.898Z,26.30
2023-05-04T07:40:52.917Z,26.28
2023-05-04T07:41:52.947Z,26.28
2023-05-04T07:42:53.429Z,26.30
2023-05-04T07:43:53.020Z,26.30
2023-05-04T07:44:52.989Z,26.31
2023-05-04T07:45:53.028Z,26.30
2023-05-04T07:46:53.040Z,26.34
2023-05-04T07:47:53.526Z,26.32
2023-05-04T07:48:53.037Z,26.32
2023-05-04T07:49:53.076Z,26.31
2023-05-04T07:50:53.084Z,26.35
2023-05-04T07:51:53.092Z,26.34
2023-05-04T07:52:53.097Z,26.35
2023-05-04T07:53:53.148Z,26.37
2023-05-04T07:54:53.234Z,26.34
2023-05-04T07:55:53.159Z,26.35
2023-05-04T07:56:53.160Z,26.35
2023-05-04T07:57:53.208Z,26.35
2023-05-04T07:58:53.207Z,26.34
2023-05-04T07:59:53.188Z,26.34
2023-05-04T08:00:53.228Z,26.37
2023-05-04T08:01:53.246Z,26.38
2023-05-04T08:02:53.404Z,26.35
2023-05-04T08:03:53.250Z,26.35
2023-05-04T08:04:53.305Z,26.38
2023-05-04T08:05:53.292Z,26.35
2023-05-04T08:06:53.297Z,26.34
2023-05-04T08:07:53.313Z,26.35
2023-05-04T08:08:53.330Z,26.35
2023-05-04T08:09:53.359Z,26.37
2023-05-04T08:10:54.099Z,26.37
2023-05-04T08:11:53.410Z,26.37
2023-05-04T08:12:53.442Z,26.35
2023-05-04T08:13:53.408Z,26.37
2023-05-04T08:14:53.420Z,26.38
2023-05-04T08:15:53.418Z,26.38
2023-05-04T08:16:53.690Z,26.38
2023-05-04T08:17:53.549Z,26.37
2023-05-04T08:18:53.490Z,26.38
2023-05-04T08:19:53.477Z,26.41
2023-05-04T08:20:53.486Z,26.37
2023-05-04T08:21:53.502Z,26.38
2023-05-04T08:22:53.538Z,26.38
2023-05-04T08:23:53.549Z,26.40
2023-05-04T08:24:53.552Z,26.38
2023-05-04T08:25:53.552Z,26.40
2023-05-04T08:27:04.137Z,26.38
2023-05-04T08:27:54.576Z,26.38
2023-05-04T08:28:53.541Z,26.40
2023-05-04T08:29:53.552Z,26.40
2023-05-04T08:30:53.524Z,26.38
2023-05-04T08:31:54.585Z,26.38
2023-05-04T08:32:53.616Z,26.38
2023-05-04T08:33:53.514Z,26.40
2023-05-04T08:34:53.555Z,26.37
2023-05-04T08:35:53.528Z,26.38
2023-05-04T08:36:53.507Z,26.41
2023-05-04T08:37:53.975Z,26.38
2023-05-04T08:38:53.509Z,26.41
2023-05-04T08:39:53.491Z,26.41
2023-05-04T08:40:53.517Z,26.41
2023-05-04T08:41:53.495Z,26.40
2023-05-04T08:42:53.503Z,26.42
2023-05-04T08:43:53.448Z,26.41
2023-05-04T08:44:53.436Z,26.44
2023-05-04T08:45:53.496Z,26.44
2023-05-04T08:46:53.608Z,26.41
2023-05-04T08:47:53.545Z,26.42
2023-05-04T08:48:53.432Z,26.44
2023-05-04T08:49:53.427Z,26.44
2023-05-04T08:50:53.384Z,26.45
2023-05-04T08:51:53.403Z,26.48
2023-05-04T08:52:53.431Z,26.45
2023-05-04T08:53:53.407Z,26.45
2023-05-04T08:54:53.436Z,26.47
2023-05-04T08:55:53.444Z,26.47
2023-05-04T08:56:53.456Z,26.51
2023-05-04T08:57:53.484Z,26.48
2023-05-04T08:58:53.522Z,26.48
2023-05-04T08:59:53.496Z,26.51
2023-05-04T09:00:53.594Z,26.51
2023-05-04T09:01:53.552Z,26.48
2023-05-04T09:02:53.662Z,26.48
2023-05-04T09:03:53.623Z,26.48
2023-05-04T09:04:53.562Z,26.48
2023-05-04T09:05:53.531Z,26.50
2023-05-04T09:06:54.472Z,26.48
2023-05-04T09:07:53.558Z,26.48
2023-05-04T09:08:53.582Z,26.48
2023-05-04T09:09:53.598Z,26.48
2023-05-04T09:10:53.623Z,26.48
2023-05-04T09:11:53.622Z,26.50
2023-05-04T09:12:53.647Z,26.48
2023-05-04T09:13:53.618Z,26.47
2023-05-04T09:14:53.626Z,26.48
2023-05-04T09:15:53.616Z,26.50
2023-05-04T09:16:53.655Z,26.48
2023-05-04T09:17:57.767Z,26.50
2023-05-04T09:18:53.657Z,26.48
2023-05-04T09:19:53.626Z,26.51
2023-05-04T09:20:53.708Z,26.50
2023-05-04T09:21:53.625Z,26.48
2023-05-04T09:22:53.673Z,26.50
2023-05-04T09:23:53.710Z,26.51
2023-05-04T09:24:53.592Z,26.52
2023-05-04T09:25:53.588Z,26.50
2023-05-04T09:26:53.622Z,26.50
2023-05-04T09:27:53.618Z,26.50
2023-05-04T09:28:53.607Z,26.52
2023-05-04T09:29:53.586Z,26.51
2023-05-04T09:30:53.555Z,26.51
2023-05-04T09:31:53.596Z,26.51
2023-05-04T09:32:54.040Z,26.50
2023-05-04T09:33:53.735Z,26.50
2023-05-04T09:34:53.518Z,26.51
2023-05-04T09:35:53.511Z,26.51
2023-05-04T09:36:53.558Z,26.51
2023-05-04T09:37:53.528Z,26.50
2023-05-04T09:38:53.555Z,26.52
2023-05-04T09:39:53.508Z,26.51
2023-05-04T09:40:53.510Z,26.51
2023-05-04T09:41:53.503Z,26.54
2023-05-04T09:42:53.489Z,26.51
2023-05-04T09:43:53.477Z,26.50
2023-05-04T09:44:53.495Z,26.50
2023-05-04T09:45:53.513Z,26.50
2023-05-04T09:46:53.543Z,26.51
2023-05-04T09:47:53.510Z,26.51
2023-05-04T09:48:53.457Z,26.52
2023-05-04T09:49:53.441Z,26.54
2023-05-04T09:50:53.454Z,26.56
2023-05-04T09:51:53.438Z,26.56
2023-05-04T09:52:53.447Z,26.55
2023-05-04T09:53:53.425Z,26.59
2023-05-04T09:54:53.407Z,26.56
2023-05-04T09:55:53.394Z,26.59
2023-05-04T09:56:53.417Z,26.59
2023-05-04T09:57:53.365Z,26.62
2023-05-04T09:58:53.376Z,26.61
2023-05-04T09:59:53.362Z,26.65
2023-05-04T10:00:53.367Z,26.61
2023-05-04T10:01:53.448Z,26.65
2023-05-04T10:02:53.345Z,26.65
2023-05-04T10:03:53.505Z,26.63
2023-05-04T10:04:53.323Z,26.65
2023-05-04T10:05:53.350Z,26.62
2023-05-04T10:06:53.291Z,26.67
2023-05-04T10:07:53.324Z,26.67
2023-05-04T10:08:53.317Z,26.71
2023-05-04T10:09:53.311Z,26.69
2023-05-04T10:10:53.279Z,26.71
2023-05-04T10:11:53.305Z,26.71
2023-05-04T10:12:53.340Z,26.72
2023-05-04T10:13:53.326Z,26.71
2023-05-04T10:14:53.271Z,26.72
2023-05-04T10:15:53.298Z,26.74
2023-05-04T10:16:53.228Z,26.72
2023-05-04T10:17:53.254Z,26.72
2023-05-04T10:18:53.244Z,26.75
2023-05-04T10:19:53.255Z,26.74
2023-05-04T10:20:53.225Z,26.74
2023-05-04T10:21:53.207Z,26.75
2023-05-04T10:23:00.219Z,26.72
2023-05-04T10:23:53.215Z,26.77
2023-05-04T10:24:53.287Z,26.75
2023-05-04T10:25:53.163Z,26.78
2023-05-04T10:26:53.212Z,26.78
2023-05-04T10:27:53.176Z,26.79
2023-05-04T10:28:53.185Z,26.77
2023-05-04T10:29:53.150Z,26.78
2023-05-04T10:30:53.167Z,26.77
2023-05-04T10:31:53.245Z,26.77
2023-05-04T10:32:53.183Z,26.78
2023-05-04T10:33:54.037Z,26.77
2023-05-04T10:34:53.424Z,26.79
2023-05-04T10:35:53.120Z,26.78
2023-05-04T10:36:53.121Z,26.79
2023-05-04T10:37:53.097Z,26.79
2023-05-04T10:38:53.503Z,26.81
2023-05-04T10:39:53.097Z,26.81
2023-05-04T10:40:53.100Z,26.77
2023-05-04T10:41:53.104Z,26.81
2023-05-04T10:42:53.071Z,26.79
2023-05-04T10:43:53.168Z,26.77
2023-05-04T10:44:53.074Z,26.75
2023-05-04T10:45:53.114Z,26.75
2023-05-04T10:46:53.077Z,26.75
2023-05-04T10:47:53.089Z,26.75
2023-05-04T10:48:53.046Z,26.74
2023-05-04T10:49:53.011Z,26.72
2023-05-04T10:50:53.045Z,26.69
2023-05-04T10:51:53.019Z,26.71
2023-05-04T10:52:53.029Z,26.69
2023-05-04T10:53:53.024Z,26.69
2023-05-04T10:54:52.980Z,26.68
2023-05-04T10:55:53.007Z,26.67
2023-05-04T10:56:52.992Z,26.67
2023-05-04T10:57:52.985Z,26.65
2023-05-04T10:58:52.957Z,26.63
2023-05-04T10:59:52.947Z,26.63
2023-05-04T11:00:52.949Z,26.65
2023-05-04T11:01:52.962Z,26.65
2023-05-04T11:02:53.023Z,26.65
2023-05-04T11:03:53.093Z,26.65
2023-05-04T11:04:52.939Z,26.65
2023-05-04T11:05:52.929Z,26.62
2023-05-04T11:06:52.901Z,26.61
2023-05-04T11:07:52.898Z,26.63
2023-05-04T11:08:52.928Z,26.65
2023-05-04T11:09:52.911Z,26.63
2023-05-04T11:10:52.879Z,26.62
2023-05-04T11:11:52.892Z,26.65
2023-05-04T11:12:52.923Z,26.63
2023-05-04T11:13:52.855Z,26.63
2023-05-04T11:14:52.869Z,26.65
2023-05-04T11:15:52.884Z,26.65
2023-05-04T11:16:52.855Z,26.63
2023-05-04T11:17:53.107Z,26.65
2023-05-04T11:18:52.814Z,26.68
2023-05-04T11:19:52.848Z,26.63
2023-05-04T11:20:52.800Z,26.67
2023-05-04T11:21:52.794Z,26.67
2023-05-04T11:22:52.822Z,26.65
2023-05-04T11:23:52.776Z,26.68
2023-05-04T11:24:54.243Z,26.71
2023-05-04T11:25:52.786Z,26.71
2023-05-04T11:26:52.751Z,26.69
2023-05-04T11:27:52.762Z,26.72
2023-05-04T11:28:53.058Z,26.72
2023-05-04T11:29:52.763Z,26.71
2023-05-04T11:30:55.007Z,26.74
2023-05-04T11:31:52.778Z,26.75
2023-05-04T11:32:52.807Z,26.74
2023-05-04T11:33:53.064Z,26.75
2023-05-04T11:34:55.552Z,26.77
2023-05-04T11:35:52.713Z,26.75
2023-05-04T11:36:52.712Z,26.78
2023-05-04T11:37:52.705Z,26.77
2023-05-04T11:38:52.673Z,26.77
2023-05-04T11:39:52.679Z,26.78
2023-05-04T11:40:52.689Z,26.79
2023-05-04T11:41:52.675Z,26.79
2023-05-04T11:42:54.748Z,26.81
2023-05-04T11:43:52.643Z,26.82
2023-05-04T11:44:52.678Z,26.81
2023-05-04T11:45:52.665Z,26.83
2023-05-04T11:46:52.696Z,26.85
2023-05-04T11:47:52.706Z,26.83
2023-05-04T11:48:52.653Z,26.88
2023-05-04T11:49:52.616Z,26.88
2023-05-04T11:50:52.576Z,26.86
2023-05-04T11:51:52.622Z,26.86
2023-05-04T11:52:52.605Z,26.86
2023-05-04T11:53:52.618Z,26.85
2023-05-04T11:54:54.636Z,26.88
2023-05-04T11:55:52.580Z,26.86
2023-05-04T11:56:52.570Z,26.88
2023-05-04T11:57:52.575Z,26.89
2023-05-04T11:58:52.614Z,26.89
2023-05-04T11:59:52.551Z,26.91
2023-05-04T12:00:53.750Z,26.91
2023-05-04T12:01:52.525Z,26.93
2023-05-04T12:02:52.609Z,26.92
2023-05-04T12:03:54.109Z,26.93
2023-05-04T12:04:52.493Z,26.92
2023-05-04T12:05:52.653Z,26.93
2023-05-04T12:06:52.495Z,26.96
2023-05-04T12:07:52.503Z,26.96
2023-05-04T12:08:52.469Z,26.96
2023-05-04T12:09:52.464Z,26.98
2023-05-04T12:10:52.462Z,26.98
2023-05-04T12:11:52.482Z,26.99
2023-05-04T12:12:52.474Z,26.99
2023-05-04T12:13:52.573Z,27.02
2023-05-04T12:14:52.470Z,27.03
2023-05-04T12:15:52.453Z,27.05
2023-05-04T12:16:52.463Z,27.05
2023-05-04T12:17:52.451Z,27.06
2023-05-04T12:18:52.440Z,27.09
2023-05-04T12:19:52.427Z,27.07
2023-05-04T12:20:52.371Z,27.10
2023-05-04T12:21:52.545Z,27.13
2023-05-04T12:22:52.391Z,27.14
2023-05-04T12:23:52.596Z,27.17
2023-05-04T12:24:52.367Z,27.17
2023-05-04T12:25:58.186Z,27.17
2023-05-04T12:26:53.375Z,27.17
2023-05-04T12:27:52.375Z,27.19
2023-05-04T12:28:52.345Z,27.19
2023-05-04T12:29:52.341Z,27.23
2023-05-04T12:30:52.350Z,27.22
2023-05-04T12:31:52.356Z,27.26
2023-05-04T12:32:52.407Z,27.26
2023-05-04T12:33:52.335Z,27.28
2023-05-04T12:34:52.305Z,27.29
2023-05-04T12:35:52.314Z,27.28
2023-05-04T12:36:52.376Z,27.32
2023-05-04T12:37:52.385Z,27.34
2023-05-04T12:38:52.444Z,27.34
2023-05-04T12:39:52.518Z,27.37
2023-05-04T12:40:52.569Z,27.39
2023-05-04T12:41:52.669Z,27.43
2023-05-04T12:42:52.732Z,27.43
2023-05-04T12:43:52.780Z,27.46
2023-05-04T12:44:52.827Z,27.49
2023-05-04T12:45:52.938Z,27.51
2023-05-04T12:46:52.962Z,27.54
2023-05-04T12:47:53.062Z,27.57
2023-05-04T12:48:53.092Z,27.57
2023-05-04T12:49:53.109Z,27.58
2023-05-04T12:50:53.143Z,27.63
2023-05-04T12:51:53.218Z,27.63
2023-05-04T12:52:53.266Z,27.64